createdAt,value
2019-04-23T00:02:13.501Z,15.91
2019-04-23T00:04:20.176Z,15.89
2019-04-23T00:06:28.147Z,15.85
2019-04-23T00:08:41.611Z,15.83
2019-04-23T00:15:04.407Z,15.78
2019-04-23T00:16:57.830Z,15.77
2019-04-23T00:18:57.465Z,15.78
2019-04-23T00:21:13.941Z,15.77
2019-04-23T00:23:16.372Z,15.74
2019-04-23T00:29:53.421Z,15.69
2019-04-23T00:31:56.187Z,15.67
2019-04-23T00:33:59.047Z,15.65
2019-04-23T00:36:03.066Z,15.65
2019-04-23T00:38:11.877Z,15.62
2019-04-23T00:40:10.203Z,15.63
2019-04-23T00:42:23.987Z,15.62
2019-04-23T00:44:25.281Z,15.63
2019-04-23T00:46:28.922Z,15.62
2019-04-23T00:50:52.224Z,15.53
2019-04-23T00:52:45.698Z,15.51
2019-04-23T00:54:57.512Z,15.47
2019-04-23T00:57:01.396Z,15.47
2019-04-23T01:01:11.553Z,15.49
2019-04-23T01:05:24.842Z,15.53
2019-04-23T01:07:33.376Z,15.52
2019-04-23T01:09:44.130Z,15.50
2019-04-23T01:11:39.318Z,15.46
2019-04-23T01:14:01.123Z,15.43
2019-04-23T01:15:59.693Z,15.41
2019-04-23T01:20:18.861Z,15.36
2019-04-23T01:22:04.527Z,15.35
2019-04-23T01:24:31.290Z,15.34
2019-04-23T01:27:32.487Z,15.31
2019-04-23T01:29:22.248Z,15.26
2019-04-23T01:31:31.124Z,15.25
2019-04-23T01:33:42.446Z,15.24
2019-04-23T01:35:36.341Z,15.20
2019-04-23T01:37:41.105Z,15.19
2019-04-23T01:39:52.812Z,15.18
2019-04-23T01:42:03.915Z,15.14
2019-04-23T01:43:58.235Z,15.11
2019-04-23T01:46:09.528Z,15.08
2019-04-23T01:48:12.437Z,15.06
2019-04-23T01:50:20.187Z,15.05
2019-04-23T01:52:31.996Z,15.02
2019-04-23T01:54:32.467Z,15.01
2019-04-23T01:56:36.876Z,15.00
2019-04-23T01:58:59.140Z,14.98
2019-04-23T02:00:41.245Z,14.99
2019-04-23T02:03:09.434Z,14.99
2019-04-23T02:05:01.215Z,14.98
2019-04-23T02:07:09.036Z,14.98
2019-04-23T02:09:12.637Z,14.97
2019-04-23T02:11:11.730Z,14.91
2019-04-23T02:15:29.940Z,14.88
2019-04-23T02:17:38.362Z,14.87
2019-04-23T02:19:45.811Z,14.88
2019-04-23T02:22:01.179Z,14.84
2019-04-23T02:24:05.016Z,14.87
2019-04-23T02:26:09.050Z,14.86
2019-04-23T02:28:19.563Z,14.87
2019-04-23T02:32:40.404Z,14.83
2019-04-23T02:41:03.630Z,14.72
2019-04-23T02:45:09.623Z,14.68
2019-04-23T02:49:40.449Z,14.63
2019-04-23T02:51:42.356Z,14.60
2019-04-23T02:53:51.270Z,14.58
2019-04-23T03:02:15.575Z,14.46
2019-04-23T03:04:14.822Z,14.45
2019-04-23T03:06:16.395Z,14.45
2019-04-23T03:08:24.949Z,14.45
2019-04-23T03:10:21.028Z,14.43
2019-04-23T03:14:33.038Z,14.41
2019-04-23T03:18:58.179Z,14.36
2019-04-23T03:25:47.869Z,14.32
2019-04-23T03:35:17.847Z,14.30
2019-04-23T03:36:17.067Z,14.29
2019-04-23T03:38:41.718Z,14.26
2019-04-23T03:40:48.234Z,14.26
2019-04-23T03:44:53.380Z,14.23
2019-04-23T03:46:41.996Z,14.21
2019-04-23T03:50:58.708Z,14.20
2019-04-23T03:53:10.982Z,14.19
2019-04-23T03:55:10.418Z,14.16
2019-04-23T03:57:18.489Z,14.13
2019-04-23T03:59:29.020Z,14.13
2019-04-23T04:04:22.929Z,14.09
2019-04-23T04:07:47.302Z,14.09
2019-04-23T04:11:48.654Z,14.10
2019-04-23T04:16:00.746Z,14.09
2019-04-23T04:22:28.814Z,14.07
2019-04-23T04:24:35.996Z,14.04
2019-04-23T04:28:48.638Z,14.03
2019-04-23T04:32:56.572Z,14.03
2019-04-23T04:37:27.141Z,14.00
2019-04-23T04:38:58.989Z,14.01
2019-04-23T04:47:40.293Z,14.04
2019-04-23T04:49:44.072Z,14.07
2019-04-23T04:51:49.775Z,14.08
2019-04-23T04:55:57.250Z,14.13
2019-04-23T05:02:20.920Z,14.22
2019-04-23T05:04:19.875Z,14.25
2019-04-23T05:08:28.881Z,14.31
2019-04-23T05:12:36.240Z,14.36
2019-04-23T05:19:25.136Z,14.44
2019-04-23T05:21:43.589Z,14.46
2019-04-23T05:23:58.023Z,14.50
2019-04-23T05:25:46.225Z,14.54
2019-04-23T05:28:08.035Z,14.60
2019-04-23T05:30:02.961Z,14.66
2019-04-23T05:31:58.096Z,14.69
2019-04-23T05:34:14.557Z,14.75
2019-04-23T05:36:20.150Z,14.79
2019-04-23T05:38:29.970Z,14.82
2019-04-23T05:40:30.487Z,14.85
2019-04-23T05:42:26.650Z,14.87
2019-04-23T05:44:51.038Z,14.91
2019-04-23T05:46:52.294Z,14.95
2019-04-23T05:48:50.886Z,14.95
2019-04-23T05:51:01.137Z,14.95
2019-04-23T05:53:01.366Z,14.96
2019-04-23T05:55:01.614Z,15.00
2019-04-23T05:57:01.779Z,15.01
2019-04-23T05:59:12.967Z,15.04
2019-04-23T06:03:29.407Z,15.18
2019-04-23T06:05:40.096Z,15.27
2019-04-23T06:09:52.156Z,15.37
2019-04-23T06:12:01.529Z,15.41
2019-04-23T06:14:07.652Z,15.42
2019-04-23T06:16:16.370Z,15.42
2019-04-23T06:18:17.135Z,15.45
2019-04-23T06:20:31.604Z,15.42
2019-04-23T06:22:29.066Z,15.39
2019-04-23T06:24:39.809Z,15.39
2019-04-23T06:26:39.556Z,15.39
2019-04-23T06:28:44.026Z,15.36
2019-04-23T06:33:14.568Z,15.35
2019-04-23T06:34:56.781Z,15.34
2019-04-23T06:37:04.999Z,15.35
2019-04-23T06:39:08.435Z,15.43
2019-04-23T06:41:16.754Z,15.52
2019-04-23T06:43:35.186Z,15.56
2019-04-23T06:45:32.173Z,15.60
2019-04-23T06:47:36.137Z,15.68
2019-04-23T06:49:44.122Z,15.77
2019-04-23T06:52:02.415Z,15.87
2019-04-23T06:53:59.973Z,15.93
2019-04-23T06:56:06.762Z,15.96
2019-04-23T06:58:12.342Z,16.05
2019-04-23T07:00:16.679Z,16.11
2019-04-23T07:02:35.978Z,16.13
2019-04-23T07:04:30.596Z,16.12
2019-04-23T07:06:32.615Z,16.15
2019-04-23T07:10:54.319Z,16.22
2019-04-23T07:12:53.855Z,16.31
2019-04-23T07:16:58.935Z,16.51
2019-04-23T07:19:09.495Z,16.62
2019-04-23T07:21:15.449Z,16.67
2019-04-23T07:23:26.075Z,16.77
2019-04-23T07:25:23.961Z,16.82
2019-04-23T07:27:24.578Z,16.85
2019-04-23T07:29:32.667Z,16.91
2019-04-23T07:31:40.934Z,16.99
2019-04-23T07:33:54.722Z,17.07
2019-04-23T07:35:51.821Z,17.14
2019-04-23T07:38:09.307Z,17.26
2019-04-23T07:40:39.033Z,17.37
2019-04-23T07:45:17.121Z,17.47
2019-04-23T07:49:43.386Z,17.47
2019-04-23T07:51:37.142Z,17.47
2019-04-23T07:53:46.372Z,17.55
2019-04-23T07:58:00.255Z,17.69
2019-04-23T08:00:00.779Z,17.83
2019-04-23T08:02:11.549Z,17.94
2019-04-23T08:04:08.833Z,18.00
2019-04-23T08:06:12.020Z,17.98
2019-04-23T08:08:21.453Z,17.96
2019-04-23T08:10:29.739Z,17.97
2019-04-23T08:14:47.970Z,17.95
2019-04-23T08:16:36.808Z,17.93
2019-04-23T08:20:57.175Z,17.96
2019-04-23T08:23:12.576Z,18.01
2019-04-23T08:25:45.823Z,18.02
2019-04-23T08:28:00.489Z,18.01
2019-04-23T08:30:00.184Z,18.03
2019-04-23T08:34:23.908Z,18.14
2019-04-23T08:36:23.741Z,18.20
2019-04-23T08:38:32.302Z,18.27
2019-04-23T08:40:35.341Z,18.36
2019-04-23T08:45:15.593Z,18.57
2019-04-23T08:47:32.034Z,18.65
2019-04-23T08:49:36.203Z,18.77
2019-04-23T08:51:44.183Z,18.92
2019-04-23T08:55:51.628Z,19.08
2019-04-23T08:57:47.100Z,19.15
2019-04-23T08:59:57.398Z,19.13
2019-04-23T09:04:08.922Z,19.11
2019-04-23T09:06:16.149Z,19.09
2019-04-23T09:08:32.726Z,19.07
2019-04-23T09:10:32.431Z,19.05
2019-04-23T09:14:31.517Z,19.02
2019-04-23T09:16:48.812Z,19.05
2019-04-23T09:18:51.225Z,19.08
2019-04-23T09:20:49.692Z,19.13
2019-04-23T09:22:54.946Z,19.16
2019-04-23T09:25:14.807Z,19.17
2019-04-23T09:27:16.418Z,19.14
2019-04-23T09:32:00.742Z,19.10
2019-04-23T09:33:52.207Z,19.19
2019-04-23T09:38:31.866Z,19.25
2019-04-23T09:41:18.216Z,19.27
2019-04-23T09:43:12.209Z,19.30
2019-04-23T09:45:26.897Z,19.32
2019-04-23T09:47:58.080Z,19.38
2019-04-23T09:50:06.378Z,19.47
2019-04-23T09:52:09.226Z,19.54
2019-04-23T09:54:09.787Z,19.62
2019-04-23T09:56:17.703Z,19.79
2019-04-23T10:00:31.448Z,19.81
2019-04-23T10:02:21.971Z,19.78
2019-04-23T10:04:26.494Z,19.78
2019-04-23T10:06:22.657Z,19.82
2019-04-23T10:08:27.961Z,19.79
2019-04-23T10:10:28.283Z,19.74
2019-04-23T10:12:33.034Z,19.74
2019-04-23T10:14:36.850Z,19.77
2019-04-23T10:16:41.413Z,19.80
2019-04-23T10:18:47.014Z,19.84
2019-04-23T10:20:52.299Z,19.87
2019-04-23T10:22:57.311Z,19.85
2019-04-23T10:25:01.337Z,19.88
2019-04-23T10:27:06.102Z,19.87
2019-04-23T10:29:21.324Z,19.94
2019-04-23T10:31:25.301Z,19.98
2019-04-23T10:33:29.713Z,19.99
2019-04-23T10:35:43.227Z,20.03
2019-04-23T10:37:48.113Z,20.08
2019-04-23T10:39:52.537Z,20.12
2019-04-23T10:41:53.171Z,20.10
2019-04-23T10:44:05.092Z,20.13
2019-04-23T10:46:53.696Z,20.19
2019-04-23T10:49:48.497Z,20.23
2019-04-23T10:51:33.876Z,20.34
2019-04-23T10:53:38.267Z,20.40
2019-04-23T10:57:49.165Z,20.40
2019-04-23T10:59:50.360Z,20.44
2019-04-23T11:02:10.507Z,20.49
2019-04-23T11:04:23.509Z,20.55
2019-04-23T11:06:28.765Z,20.57
2019-04-23T11:08:18.878Z,20.59
2019-04-23T11:12:46.285Z,20.57
2019-04-23T11:15:18.333Z,20.60
2019-04-23T11:17:19.426Z,20.55
2019-04-23T11:19:24.872Z,20.61
2019-04-23T11:21:34.301Z,20.69
2019-04-23T11:23:39.233Z,20.77
2019-04-23T11:27:44.103Z,20.80
2019-04-23T11:29:51.822Z,20.86
2019-04-23T11:32:33.110Z,20.90
2019-04-23T11:36:33.398Z,21.03
2019-04-23T11:40:22.640Z,20.99
2019-04-23T11:42:26.218Z,21.01
2019-04-23T11:44:52.953Z,21.01
2019-04-23T11:48:51.461Z,21.01
2019-04-23T11:51:18.494Z,21.04
2019-04-23T11:55:03.156Z,21.09
2019-04-23T11:57:27.212Z,21.17
2019-04-23T11:59:17.526Z,21.17
2019-04-23T12:01:53.305Z,21.15
2019-04-23T12:04:05.679Z,21.19
2019-04-23T12:06:32.827Z,21.23
2019-04-23T12:08:57.085Z,21.25
2019-04-23T12:11:41.016Z,21.22
2019-04-23T12:13:20.738Z,21.28
2019-04-23T12:15:30.436Z,21.28
2019-04-23T12:17:24.694Z,21.32
2019-04-23T12:23:48.391Z,21.41
2019-04-23T12:25:51.562Z,21.46
2019-04-23T12:27:42.087Z,21.50
2019-04-23T12:30:00.870Z,21.58
2019-04-23T12:34:39.555Z,21.67
2019-04-23T12:36:51.398Z,21.71
2019-04-23T12:39:08.696Z,21.74
2019-04-23T12:41:10.619Z,21.72
2019-04-23T12:45:26.959Z,21.67
2019-04-23T12:47:40.174Z,21.66
2019-04-23T12:51:41.569Z,21.69
2019-04-23T12:53:50.717Z,21.70
2019-04-23T12:59:58.313Z,21.68
2019-04-23T13:02:03.368Z,21.75
2019-04-23T13:04:09.385Z,21.84
2019-04-23T13:06:13.252Z,21.84
2019-04-23T13:08:26.809Z,21.77
2019-04-23T13:10:28.306Z,21.78
2019-04-23T13:12:46.662Z,21.74
2019-04-23T13:14:41.649Z,21.74
2019-04-23T13:16:53.636Z,21.74
2019-04-23T13:18:52.777Z,21.77
2019-04-23T13:20:51.631Z,21.76
2019-04-23T13:23:06.306Z,21.75
2019-04-23T13:25:18.201Z,21.75
2019-04-23T13:27:30.667Z,21.83
2019-04-23T13:29:38.148Z,21.83
2019-04-23T13:31:29.259Z,21.86
2019-04-23T13:35:53.672Z,21.86
2019-04-23T13:37:58.939Z,21.85
2019-04-23T13:40:18.841Z,21.77
2019-04-23T13:42:07.612Z,21.71
2019-04-23T13:44:05.511Z,21.71
2019-04-23T13:46:14.095Z,21.74
2019-04-23T13:48:16.671Z,21.74
2019-04-23T13:50:40.344Z,21.82
2019-04-23T13:52:59.844Z,21.77
2019-04-23T13:57:14.430Z,21.75
2019-04-23T13:58:53.567Z,21.73
2019-04-23T14:01:18.568Z,21.84
2019-04-23T14:03:04.066Z,21.84
2019-04-23T14:05:23.931Z,21.85
2019-04-23T14:07:32.268Z,21.87
2019-04-23T14:11:47.911Z,21.82
2019-04-23T14:16:10.323Z,21.86
2019-04-23T14:18:19.637Z,21.87
2019-04-23T14:20:07.271Z,21.81
2019-04-23T14:22:40.567Z,21.79
2019-04-23T14:24:38.753Z,21.79
2019-04-23T14:26:29.549Z,21.81
2019-04-23T14:28:37.364Z,21.79
2019-04-23T14:30:38.403Z,21.79
2019-04-23T14:34:55.495Z,21.79
2019-04-23T14:38:57.331Z,21.74
2019-04-23T14:41:10.607Z,21.78
2019-04-23T14:45:29.837Z,21.82
2019-04-23T14:47:37.966Z,21.82
2019-04-23T14:49:34.096Z,21.82
2019-04-23T14:53:52.162Z,21.87
2019-04-23T14:55:57.192Z,21.86
2019-04-23T14:58:10.189Z,21.83
2019-04-23T15:02:14.557Z,21.82
2019-04-23T15:04:11.029Z,21.82
2019-04-23T15:06:39.887Z,21.83
2019-04-23T15:08:32.109Z,21.83
2019-04-23T15:10:34.362Z,21.81
2019-04-23T15:12:38.583Z,21.80
2019-04-23T15:17:03.317Z,21.78
2019-04-23T15:21:37.656Z,21.74
2019-04-23T15:29:27.551Z,21.68
2019-04-23T15:31:48.791Z,21.70
2019-04-23T15:34:00.621Z,21.69
2019-04-23T15:36:14.287Z,21.69
2019-04-23T15:40:18.336Z,21.61
2019-04-23T15:42:16.644Z,21.67
2019-04-23T15:48:31.396Z,21.58
2019-04-23T15:50:37.638Z,21.53
2019-04-23T15:52:56.024Z,21.53
2019-04-23T15:55:01.696Z,21.51
2019-04-23T15:56:55.134Z,21.47
2019-04-23T15:59:23.654Z,21.46
2019-04-23T16:02:54.453Z,21.42
2019-04-23T16:05:00.120Z,21.45
2019-04-23T16:07:07.301Z,21.36
2019-04-23T16:09:39.929Z,21.36
2019-04-23T16:14:11.315Z,21.37
2019-04-23T16:16:02.574Z,21.36
2019-04-23T16:18:13.839Z,21.36
2019-04-23T16:22:18.947Z,21.32
2019-04-23T16:24:20.405Z,21.29
2019-04-23T16:26:45.086Z,21.25
2019-04-23T16:29:03.013Z,21.23
2019-04-23T16:30:49.076Z,21.21
2019-04-23T16:35:29.158Z,21.12
2019-04-23T16:37:22.745Z,21.12
2019-04-23T16:39:21.675Z,21.11
2019-04-23T16:41:39.898Z,21.10
2019-04-23T16:43:40.406Z,20.86
2019-04-23T16:47:56.066Z,20.73
2019-04-23T16:50:04.546Z,20.61
2019-04-23T16:52:07.801Z,20.52
2019-04-23T16:54:15.271Z,20.50
2019-04-23T16:56:18.712Z,20.51
2019-04-23T16:58:25.235Z,20.53
2019-04-23T17:00:51.292Z,20.53
2019-04-23T17:02:34.197Z,20.57
2019-04-23T17:04:39.234Z,20.55
2019-04-23T17:06:54.366Z,20.58
2019-04-23T17:11:10.075Z,20.55
2019-04-23T17:13:04.924Z,20.52
2019-04-23T17:15:12.787Z,20.48
2019-04-23T17:17:06.473Z,20.45
2019-04-23T17:19:24.190Z,20.41
2019-04-23T17:21:24.058Z,20.36
2019-04-23T17:23:40.085Z,20.35
2019-04-23T17:27:48.935Z,20.31
2019-04-23T17:29:55.638Z,20.30
2019-04-23T17:32:07.067Z,20.26
2019-04-23T17:34:17.602Z,20.22
2019-04-23T17:38:59.494Z,20.16
2019-04-23T17:41:07.012Z,20.11
2019-04-23T17:43:05.873Z,20.07
2019-04-23T17:50:02.889Z,19.98
2019-04-23T17:51:42.634Z,19.94
2019-04-23T17:56:10.390Z,19.87
2019-04-23T17:58:16.120Z,19.85
2019-04-23T18:02:51.783Z,19.81
2019-04-23T18:04:22.585Z,19.79
2019-04-23T18:08:33.123Z,19.74
2019-04-23T18:10:41.513Z,19.72
2019-04-23T18:14:52.717Z,19.63
2019-04-23T18:16:55.524Z,19.60
2019-04-23T18:19:10.339Z,19.56
2019-04-23T18:21:44.434Z,19.53
2019-04-23T18:23:34.690Z,19.51
2019-04-23T18:30:10.977Z,19.41
2019-04-23T18:32:25.240Z,19.40
2019-04-23T18:34:47.027Z,19.39
2019-04-23T18:36:30.353Z,19.40
2019-04-23T18:42:54.216Z,19.32
2019-04-23T18:47:09.007Z,19.28
2019-04-23T18:49:10.869Z,19.26
2019-04-23T18:51:31.719Z,19.22
2019-04-23T18:53:35.278Z,19.22
2019-04-23T18:55:54.274Z,19.23
2019-04-23T18:57:55.299Z,19.19
2019-04-23T18:59:47.396Z,19.15
2019-04-23T19:02:02.513Z,19.12
2019-04-23T19:06:43.991Z,19.00
2019-04-23T19:09:02.883Z,18.96
2019-04-23T19:11:37.188Z,18.89
2019-04-23T19:15:38.032Z,18.83
2019-04-23T19:17:56.409Z,18.78
2019-04-23T19:20:01.118Z,18.74
2019-04-23T19:22:12.315Z,18.73
2019-04-23T19:23:54.767Z,18.72
2019-04-23T19:26:09.616Z,18.68
2019-04-23T19:28:30.224Z,18.64
2019-04-23T19:32:28.274Z,18.59
2019-04-23T19:36:52.564Z,18.50
2019-04-23T19:38:46.071Z,18.48
2019-04-23T19:40:56.681Z,18.47
2019-04-23T19:42:54.186Z,18.46
2019-04-23T19:44:57.374Z,18.40
2019-04-23T19:47:09.549Z,18.36
2019-04-23T19:51:18.703Z,18.26
2019-04-23T19:53:36.364Z,18.21
2019-04-23T19:55:31.520Z,18.16
2019-04-23T19:57:57.970Z,18.14
2019-04-23T19:59:47.621Z,18.12
2019-04-23T20:01:47.270Z,18.08
2019-04-23T20:06:02.958Z,18.03
2019-04-23T20:10:03.658Z,17.96
2019-04-23T20:12:15.564Z,17.92
2019-04-23T20:14:26.214Z,17.87
2019-04-23T20:16:40.044Z,17.85
2019-04-23T20:18:47.798Z,17.82
2019-04-23T20:25:10.781Z,17.71
2019-04-23T20:29:36.071Z,17.64
2019-04-23T20:33:55.142Z,17.60
2019-04-23T20:35:52.383Z,17.57
2019-04-23T20:38:19.018Z,17.52
2019-04-23T20:44:11.883Z,17.42
2019-04-23T20:46:36.791Z,17.39
2019-04-23T20:48:25.184Z,17.36
2019-04-23T20:50:27.614Z,17.31
2019-04-23T20:52:22.718Z,17.23
2019-04-23T20:54:49.298Z,17.16
2019-04-23T20:56:56.119Z,17.12
2019-04-23T21:01:26.947Z,17.06
2019-04-23T21:03:30.835Z,17.06
2019-04-23T21:05:15.229Z,17.04
2019-04-23T21:07:35.188Z,17.02
2019-04-23T21:11:40.631Z,16.95
2019-04-23T21:14:03.595Z,16.93
2019-04-23T21:15:45.294Z,16.88
2019-04-23T21:17:58.246Z,16.84
2019-04-23T21:20:08.847Z,16.78
2019-04-23T21:22:09.526Z,16.71
2019-04-23T21:24:08.736Z,16.69
2019-04-23T21:26:01.845Z,16.65
2019-04-23T21:30:58.970Z,16.59
2019-04-23T21:32:56.025Z,16.57
2019-04-23T21:35:04.939Z,16.54
2019-04-23T21:36:58.067Z,16.51
2019-04-23T21:39:41.838Z,16.51
2019-04-23T21:46:07.224Z,16.41
2019-04-23T21:52:11.783Z,16.29
2019-04-23T21:54:14.962Z,16.29
2019-04-23T21:56:31.256Z,16.27
2019-04-23T21:58:51.421Z,16.24
2019-04-23T22:00:53.085Z,16.24
2019-04-23T22:04:52.089Z,16.22
2019-04-23T22:06:52.753Z,16.22
2019-04-23T22:09:04.254Z,16.22
2019-04-23T22:11:36.254Z,16.23
2019-04-23T22:13:19.799Z,16.23
2019-04-23T22:15:26.552Z,16.24
2019-04-23T22:17:26.714Z,16.25
2019-04-23T22:19:27.330Z,16.23
2019-04-23T22:23:50.613Z,16.19
2019-04-23T22:25:56.349Z,16.14
2019-04-23T22:27:54.885Z,16.11
2019-04-23T22:29:59.062Z,16.10
2019-04-23T22:32:02.507Z,16.05
2019-04-23T22:36:16.491Z,15.96
2019-04-23T22:40:25.374Z,15.84
2019-04-23T22:44:51.091Z,15.72
2019-04-23T22:46:52.502Z,15.71
2019-04-23T22:49:17.647Z,15.74
2019-04-23T22:51:21.035Z,15.73
2019-04-23T22:53:18.934Z,15.69
2019-04-23T22:57:37.140Z,15.63
2019-04-23T23:01:59.237Z,15.64
2019-04-23T23:03:52.878Z,15.68
2019-04-23T23:06:11.010Z,15.69
2019-04-23T23:10:18.811Z,15.66
2019-04-23T23:12:27.996Z,15.67
2019-04-23T23:14:23.842Z,15.65
2019-04-23T23:18:54.645Z,15.67
2019-04-23T23:25:03.360Z,15.69
2019-04-23T23:26:57.391Z,15.68
2019-04-23T23:29:16.026Z,15.68
2019-04-23T23:31:06.863Z,15.69
2019-04-23T23:33:19.232Z,15.70
2019-04-23T23:35:24.548Z,15.69
2019-04-23T23:37:19.048Z,15.69
2019-04-23T23:39:27.199Z,15.67
2019-04-23T23:41:46.922Z,15.64
2019-04-23T23:46:04.875Z,15.60
2019-04-23T23:47:59.463Z,15.57
2019-04-23T23:50:11.171Z,15.52
2019-04-23T23:52:02.892Z,15.47
2019-04-23T23:54:13.602Z,15.47
2019-04-23T23:56:17.765Z,15.47
2019-04-23T23:58:28.916Z,15.43
